sensor_id;sensor_type;location;lat;lon;timestamp;P1;durP1;ratioP1;P2;durP2;ratioP2
10617;SDS011;5356;43.526;26.534;2023-04-25T00:02:21;6.70;;;3.35;;
10617;SDS011;5356;43.526;26.534;2023-04-25T00:04:47;3.95;;;3.00;;
10617;SDS011;5356;43.526;26.534;2023-04-25T00:07:13;6.55;;;2.90;;
10617;SDS011;5356;43.526;26.534;2023-04-25T00:09:39;5.68;;;3.45;;
10617;SDS011;5356;43.526;26.534;2023-04-25T00:12:05;5.70;;;3.30;;
10617;SDS011;5356;43.526;26.534;2023-04-25T00:14:31;5.10;;;3.15;;
10617;SDS011;5356;43.526;26.534;2023-04-25T00:16:59;5.65;;;3.20;;
10617;SDS011;5356;43.526;26.534;2023-04-25T00:19:25;4.80;;;3.13;;
10617;SDS011;5356;43.526;26.534;2023-04-25T00:21:53;6.45;;;3.40;;
10617;SDS011;5356;43.526;26.534;2023-04-25T00:24:21;4.78;;;3.13;;
10617;SDS011;5356;43.526;26.534;2023-04-25T00:26:46;5.65;;;3.35;;
10617;SDS011;5356;43.526;26.534;2023-04-25T00:29:12;5.55;;;3.00;;
10617;SDS011;5356;43.526;26.534;2023-04-25T00:31:37;4.72;;;3.47;;
10617;SDS011;5356;43.526;26.534;2023-04-25T00:34:03;5.10;;;3.13;;
10617;SDS011;5356;43.526;26.534;2023-04-25T00:36:28;7.80;;;3.30;;
10617;SDS011;5356;43.526;26.534;2023-04-25T00:38:55;4.45;;;3.05;;
10617;SDS011;5356;43.526;26.534;2023-04-25T00:41:20;6.82;;;3.00;;
10617;SDS011;5356;43.526;26.534;2023-04-25T00:43:47;5.20;;;3.05;;
10617;SDS011;5356;43.526;26.534;2023-04-25T00:46:14;5.03;;;3.17;;
10617;SDS011;5356;43.526;26.534;2023-04-25T00:48:39;4.97;;;3.22;;
10617;SDS011;5356;43.526;26.534;2023-04-25T00:51:04;5.18;;;3.10;;
10617;SDS011;5356;43.526;26.534;2023-04-25T00:53:31;5.85;;;3.63;;
10617;SDS011;5356;43.526;26.534;2023-04-25T00:55:57;5.57;;;3.05;;
10617;SDS011;5356;43.526;26.534;2023-04-25T00:58:23;4.63;;;3.50;;
10617;SDS011;5356;43.526;26.534;2023-04-25T01:00:50;5.55;;;2.95;;
10617;SDS011;5356;43.526;26.534;2023-04-25T01:03:19;6.80;;;3.22;;
10617;SDS011;5356;43.526;26.534;2023-04-25T01:05:46;7.65;;;3.13;;
10617;SDS011;5356;43.526;26.534;2023-04-25T01:08:12;7.97;;;3.30;;
10617;SDS011;5356;43.526;26.534;2023-04-25T01:10:39;4.63;;;3.10;;
10617;SDS011;5356;43.526;26.534;2023-04-25T01:13:04;6.20;;;3.38;;
10617;SDS011;5356;43.526;26.534;2023-04-25T01:15:30;6.63;;;3.40;;
10617;SDS011;5356;43.526;26.534;2023-04-25T01:17:55;4.75;;;3.38;;
10617;SDS011;5356;43.526;26.534;2023-04-25T01:20:23;5.65;;;3.40;;
10617;SDS011;5356;43.526;26.534;2023-04-25T01:22:50;5.22;;;3.53;;
10617;SDS011;5356;43.526;26.534;2023-04-25T01:25:17;5.88;;;3.83;;
10617;SDS011;5356;43.526;26.534;2023-04-25T01:27:43;4.55;;;3.30;;
10617;SDS011;5356;43.526;26.534;2023-04-25T01:30:10;7.90;;;3.63;;
10617;SDS011;5356;43.526;26.534;2023-04-25T01:32:35;5.00;;;3.58;;
10617;SDS011;5356;43.526;26.534;2023-04-25T01:35:04;6.18;;;3.80;;
10617;SDS011;5356;43.526;26.534;2023-04-25T01:37:38;3.85;;;3.22;;
10617;SDS011;5356;43.526;26.534;2023-04-25T01:40:04;5.45;;;4.00;;
10617;SDS011;5356;43.526;26.534;2023-04-25T01:42:32;7.90;;;3.58;;
10617;SDS011;5356;43.526;26.534;2023-04-25T01:44:58;7.22;;;3.50;;
10617;SDS011;5356;43.526;26.534;2023-04-25T01:47:24;7.03;;;3.80;;
10617;SDS011;5356;43.526;26.534;2023-04-25T01:49:49;9.50;;;3.92;;
10617;SDS011;5356;43.526;26.534;2023-04-25T01:52:15;3.95;;;3.55;;
10617;SDS011;5356;43.526;26.534;2023-04-25T01:54:41;5.60;;;3.40;;
10617;SDS011;5356;43.526;26.534;2023-04-25T01:57:09;5.40;;;3.70;;
10617;SDS011;5356;43.526;26.534;2023-04-25T01:59:36;8.30;;;3.88;;
10617;SDS011;5356;43.526;26.534;2023-04-25T02:02:02;7.40;;;3.95;;
10617;SDS011;5356;43.526;26.534;2023-04-25T02:04:29;8.30;;;4.15;;
10617;SDS011;5356;43.526;26.534;2023-04-25T02:06:55;7.38;;;3.70;;
10617;SDS011;5356;43.526;26.534;2023-04-25T02:09:21;8.18;;;4.40;;
10617;SDS011;5356;43.526;26.534;2023-04-25T02:11:46;5.30;;;3.47;;
10617;SDS011;5356;43.526;26.534;2023-04-25T02:14:12;6.53;;;3.60;;
10617;SDS011;5356;43.526;26.534;2023-04-25T02:16:38;7.47;;;3.72;;
10617;SDS011;5356;43.526;26.534;2023-04-25T02:19:03;6.13;;;3.67;;
10617;SDS011;5356;43.526;26.534;2023-04-25T02:21:30;7.63;;;3.55;;
10617;SDS011;5356;43.526;26.534;2023-04-25T02:23:56;9.50;;;4.88;;
10617;SDS011;5356;43.526;26.534;2023-04-25T02:26:22;11.73;;;5.25;;
10617;SDS011;5356;43.526;26.534;2023-04-25T02:28:48;10.15;;;5.22;;
10617;SDS011;5356;43.526;26.534;2023-04-25T02:31:15;8.15;;;4.40;;
10617;SDS011;5356;43.526;26.534;2023-04-25T02:33:40;8.52;;;4.75;;
10617;SDS011;5356;43.526;26.534;2023-04-25T02:36:06;8.27;;;4.05;;
10617;SDS011;5356;43.526;26.534;2023-04-25T02:38:32;7.50;;;4.03;;
10617;SDS011;5356;43.526;26.534;2023-04-25T02:40:57;8.15;;;4.63;;
10617;SDS011;5356;43.526;26.534;2023-04-25T02:43:23;7.85;;;4.45;;
10617;SDS011;5356;43.526;26.534;2023-04-25T02:45:48;6.68;;;5.05;;
10617;SDS011;5356;43.526;26.534;2023-04-25T02:48:14;8.13;;;4.82;;
10617;SDS011;5356;43.526;26.534;2023-04-25T02:50:39;7.43;;;5.07;;
10617;SDS011;5356;43.526;26.534;2023-04-25T02:53:04;8.65;;;4.32;;
10617;SDS011;5356;43.526;26.534;2023-04-25T02:55:30;8.38;;;4.30;;
10617;SDS011;5356;43.526;26.534;2023-04-25T02:57:55;7.35;;;3.65;;
10617;SDS011;5356;43.526;26.534;2023-04-25T03:00:21;6.35;;;4.13;;
10617;SDS011;5356;43.526;26.534;2023-04-25T03:02:47;8.85;;;4.63;;
10617;SDS011;5356;43.526;26.534;2023-04-25T03:05:13;8.65;;;4.03;;
10617;SDS011;5356;43.526;26.534;2023-04-25T03:07:38;6.88;;;4.47;;
10617;SDS011;5356;43.526;26.534;2023-04-25T03:10:05;7.57;;;4.05;;
10617;SDS011;5356;43.526;26.534;2023-04-25T03:12:31;6.78;;;4.00;;
10617;SDS011;5356;43.526;26.534;2023-04-25T03:14:57;9.60;;;3.90;;
10617;SDS011;5356;43.526;26.534;2023-04-25T03:17:22;8.65;;;5.00;;
10617;SDS011;5356;43.526;26.534;2023-04-25T03:19:48;6.63;;;4.82;;
10617;SDS011;5356;43.526;26.534;2023-04-25T03:22:13;9.27;;;4.75;;
10617;SDS011;5356;43.526;26.534;2023-04-25T03:24:39;8.13;;;5.25;;
10617;SDS011;5356;43.526;26.534;2023-04-25T03:27:05;8.25;;;4.20;;
10617;SDS011;5356;43.526;26.534;2023-04-25T03:29:30;12.73;;;4.72;;
10617;SDS011;5356;43.526;26.534;2023-04-25T03:31:56;6.30;;;3.70;;
10617;SDS011;5356;43.526;26.534;2023-04-25T03:34:21;7.93;;;5.22;;
10617;SDS011;5356;43.526;26.534;2023-04-25T03:36:47;11.00;;;5.32;;
10617;SDS011;5356;43.526;26.534;2023-04-25T03:39:12;7.50;;;4.78;;
10617;SDS011;5356;43.526;26.534;2023-04-25T03:41:38;9.45;;;4.65;;
10617;SDS011;5356;43.526;26.534;2023-04-25T03:44:03;7.57;;;4.70;;
10617;SDS011;5356;43.526;26.534;2023-04-25T03:46:29;8.32;;;4.75;;
10617;SDS011;5356;43.526;26.534;2023-04-25T03:48:54;11.63;;;5.38;;
10617;SDS011;5356;43.526;26.534;2023-04-25T03:51:20;9.23;;;4.40;;
10617;SDS011;5356;43.526;26.534;2023-04-25T03:53:45;8.85;;;5.00;;
10617;SDS011;5356;43.526;26.534;2023-04-25T03:56:11;6.43;;;4.30;;
10617;SDS011;5356;43.526;26.534;2023-04-25T03:58:36;7.03;;;4.75;;
10617;SDS011;5356;43.526;26.534;2023-04-25T04:01:02;8.25;;;4.80;;
10617;SDS011;5356;43.526;26.534;2023-04-25T04:03:33;9.82;;;4.72;;
10617;SDS011;5356;43.526;26.534;2023-04-25T04:06:00;8.07;;;4.93;;
10617;SDS011;5356;43.526;26.534;2023-04-25T04:08:26;8.05;;;4.43;;
10617;SDS011;5356;43.526;26.534;2023-04-25T04:10:53;10.00;;;5.10;;
10617;SDS011;5356;43.526;26.534;2023-04-25T04:13:18;9.77;;;4.80;;
10617;SDS011;5356;43.526;26.534;2023-04-25T04:15:44;8.90;;;3.97;;
10617;SDS011;5356;43.526;26.534;2023-04-25T04:18:09;9.82;;;4.78;;
10617;SDS011;5356;43.526;26.534;2023-04-25T04:20:35;11.85;;;4.60;;
10617;SDS011;5356;43.526;26.534;2023-04-25T04:23:01;7.32;;;4.50;;
10617;SDS011;5356;43.526;26.534;2023-04-25T04:25:26;8.10;;;4.38;;
10617;SDS011;5356;43.526;26.534;2023-04-25T04:27:52;7.68;;;4.22;;
10617;SDS011;5356;43.526;26.534;2023-04-25T04:30:20;7.90;;;4.68;;
10617;SDS011;5356;43.526;26.534;2023-04-25T04:32:50;6.93;;;4.53;;
10617;SDS011;5356;43.526;26.534;2023-04-25T04:35:16;8.95;;;5.20;;
10617;SDS011;5356;43.526;26.534;2023-04-25T04:37:42;7.70;;;5.10;;
10617;SDS011;5356;43.526;26.534;2023-04-25T04:40:09;6.88;;;4.80;;
10617;SDS011;5356;43.526;26.534;2023-04-25T04:42:34;10.43;;;4.18;;
10617;SDS011;5356;43.526;26.534;2023-04-25T04:45:01;17.83;;;6.43;;
10617;SDS011;5356;43.526;26.534;2023-04-25T04:47:30;10.35;;;5.68;;
10617;SDS011;5356;43.526;26.534;2023-04-25T04:49:56;10.48;;;5.55;;
10617;SDS011;5356;43.526;26.534;2023-04-25T04:52:22;10.65;;;5.05;;
10617;SDS011;5356;43.526;26.534;2023-04-25T04:54:53;7.43;;;4.32;;
10617;SDS011;5356;43.526;26.534;2023-04-25T04:57:19;15.35;;;5.82;;
10617;SDS011;5356;43.526;26.534;2023-04-25T04:59:47;12.23;;;5.72;;
10617;SDS011;5356;43.526;26.534;2023-04-25T05:02:12;6.90;;;5.10;;
10617;SDS011;5356;43.526;26.534;2023-04-25T05:04:38;9.38;;;6.53;;
10617;SDS011;5356;43.526;26.534;2023-04-25T05:07:03;11.95;;;6.50;;
10617;SDS011;5356;43.526;26.534;2023-04-25T05:09:28;9.15;;;5.93;;
10617;SDS011;5356;43.526;26.534;2023-04-25T05:11:54;8.73;;;5.32;;
10617;SDS011;5356;43.526;26.534;2023-04-25T05:14:20;8.55;;;5.38;;
10617;SDS011;5356;43.526;26.534;2023-04-25T05:16:46;8.45;;;4.65;;
10617;SDS011;5356;43.526;26.534;2023-04-25T05:19:12;11.25;;;4.80;;
10617;SDS011;5356;43.526;26.534;2023-04-25T05:21:38;12.05;;;6.25;;
10617;SDS011;5356;43.526;26.534;2023-04-25T05:24:03;12.15;;;5.97;;
10617;SDS011;5356;43.526;26.534;2023-04-25T05:26:29;9.43;;;6.28;;
10617;SDS011;5356;43.526;26.534;2023-04-25T05:28:58;10.45;;;6.32;;
10617;SDS011;5356;43.526;26.534;2023-04-25T05:31:24;8.30;;;6.00;;
10617;SDS011;5356;43.526;26.534;2023-04-25T05:33:50;10.77;;;5.43;;
10617;SDS011;5356;43.526;26.534;2023-04-25T05:36:16;13.27;;;6.72;;
10617;SDS011;5356;43.526;26.534;2023-04-25T05:38:41;14.68;;;7.75;;
10617;SDS011;5356;43.526;26.534;2023-04-25T05:41:07;10.70;;;6.45;;
10617;SDS011;5356;43.526;26.534;2023-04-25T05:43:33;8.65;;;4.88;;
10617;SDS011;5356;43.526;26.534;2023-04-25T05:45:58;8.60;;;5.55;;
10617;SDS011;5356;43.526;26.534;2023-04-25T05:48:24;11.63;;;5.07;;
10617;SDS011;5356;43.526;26.534;2023-04-25T05:50:50;9.05;;;5.22;;
10617;SDS011;5356;43.526;26.534;2023-04-25T05:53:16;8.73;;;5.07;;
10617;SDS011;5356;43.526;26.534;2023-04-25T05:55:42;10.05;;;4.47;;
10617;SDS011;5356;43.526;26.534;2023-04-25T05:58:08;6.00;;;4.65;;
10617;SDS011;5356;43.526;26.534;2023-04-25T06:00:33;9.82;;;4.20;;
10617;SDS011;5356;43.526;26.534;2023-04-25T06:02:59;9.13;;;4.82;;
10617;SDS011;5356;43.526;26.534;2023-04-25T06:05:24;7.10;;;4.85;;
10617;SDS011;5356;43.526;26.534;2023-04-25T06:07:50;6.80;;;4.97;;
10617;SDS011;5356;43.526;26.534;2023-04-25T06:10:16;10.63;;;5.22;;
10617;SDS011;5356;43.526;26.534;2023-04-25T06:12:41;9.32;;;5.50;;
10617;SDS011;5356;43.526;26.534;2023-04-25T06:15:07;9.63;;;5.07;;
10617;SDS011;5356;43.526;26.534;2023-04-25T06:17:33;10.88;;;6.07;;
10617;SDS011;5356;43.526;26.534;2023-04-25T06:19:58;17.35;;;6.82;;
10617;SDS011;5356;43.526;26.534;2023-04-25T06:22:24;10.98;;;6.05;;
10617;SDS011;5356;43.526;26.534;2023-04-25T06:24:49;8.43;;;5.78;;
10617;SDS011;5356;43.526;26.534;2023-04-25T06:27:15;10.90;;;5.03;;
10617;SDS011;5356;43.526;26.534;2023-04-25T06:29:40;8.95;;;5.80;;
10617;SDS011;5356;43.526;26.534;2023-04-25T06:32:06;7.10;;;4.88;;
10617;SDS011;5356;43.526;26.534;2023-04-25T06:34:31;10.07;;;5.30;;
10617;SDS011;5356;43.526;26.534;2023-04-25T06:36:57;7.70;;;4.85;;
10617;SDS011;5356;43.526;26.534;2023-04-25T06:39:22;11.18;;;6.28;;
10617;SDS011;5356;43.526;26.534;2023-04-25T06:41:49;12.57;;;5.60;;
10617;SDS011;5356;43.526;26.534;2023-04-25T06:44:15;13.85;;;5.53;;
10617;SDS011;5356;43.526;26.534;2023-04-25T06:46:40;9.05;;;4.85;;
10617;SDS011;5356;43.526;26.534;2023-04-25T06:49:07;9.18;;;5.10;;
10617;SDS011;5356;43.526;26.534;2023-04-25T06:51:40;8.00;;;5.03;;
10617;SDS011;5356;43.526;26.534;2023-04-25T06:54:07;8.25;;;4.57;;
10617;SDS011;5356;43.526;26.534;2023-04-25T06:56:32;7.15;;;5.18;;
10617;SDS011;5356;43.526;26.534;2023-04-25T06:58:58;6.55;;;4.88;;
10617;SDS011;5356;43.526;26.534;2023-04-25T07:01:25;7.57;;;5.40;;
10617;SDS011;5356;43.526;26.534;2023-04-25T07:03:50;9.27;;;4.63;;
10617;SDS011;5356;43.526;26.534;2023-04-25T07:06:16;5.63;;;3.72;;
10617;SDS011;5356;43.526;26.534;2023-04-25T07:08:41;6.40;;;5.07;;
10617;SDS011;5356;43.526;26.534;2023-04-25T07:11:07;9.55;;;4.70;;
10617;SDS011;5356;43.526;26.534;2023-04-25T07:13:32;8.55;;;4.72;;
10617;SDS011;5356;43.526;26.534;2023-04-25T07:15:58;7.85;;;4.20;;
10617;SDS011;5356;43.526;26.534;2023-04-25T07:18:24;7.80;;;4.65;;
10617;SDS011;5356;43.526;26.534;2023-04-25T07:20:50;6.68;;;4.50;;
10617;SDS011;5356;43.526;26.534;2023-04-25T07:23:15;4.78;;;3.53;;
10617;SDS011;5356;43.526;26.534;2023-04-25T07:25:41;7.00;;;4.03;;
10617;SDS011;5356;43.526;26.534;2023-04-25T07:28:06;8.93;;;4.88;;
10617;SDS011;5356;43.526;26.534;2023-04-25T07:30:32;6.72;;;4.07;;
10617;SDS011;5356;43.526;26.534;2023-04-25T07:32:58;7.05;;;3.72;;
10617;SDS011;5356;43.526;26.534;2023-04-25T07:35:24;10.77;;;4.22;;
10617;SDS011;5356;43.526;26.534;2023-04-25T07:37:49;11.35;;;5.05;;
10617;SDS011;5356;43.526;26.534;2023-04-25T07:40:15;8.65;;;4.53;;
10617;SDS011;5356;43.526;26.534;2023-04-25T07:42:41;5.68;;;4.10;;
10617;SDS011;5356;43.526;26.534;2023-04-25T07:45:07;7.63;;;4.88;;
10617;SDS011;5356;43.526;26.534;2023-04-25T07:47:34;4.85;;;4.30;;
10617;SDS011;5356;43.526;26.534;2023-04-25T07:50:00;7.38;;;3.67;;
10617;SDS011;5356;43.526;26.534;2023-04-25T07:52:25;8.02;;;4.32;;
10617;SDS011;5356;43.526;26.534;2023-04-25T07:54:51;7.60;;;4.95;;
10617;SDS011;5356;43.526;26.534;2023-04-25T07:57:16;5.80;;;3.78;;
10617;SDS011;5356;43.526;26.534;2023-04-25T07:59:43;9.52;;;4.13;;
10617;SDS011;5356;43.526;26.534;2023-04-25T08:02:08;7.65;;;3.97;;
10617;SDS011;5356;43.526;26.534;2023-04-25T08:04:34;14.80;;;4.70;;
10617;SDS011;5356;43.526;26.534;2023-04-25T08:06:59;4.95;;;3.50;;
10617;SDS011;5356;43.526;26.534;2023-04-25T08:09:25;6.32;;;4.00;;
10617;SDS011;5356;43.526;26.534;2023-04-25T08:11:51;5.38;;;3.88;;
10617;SDS011;5356;43.526;26.534;2023-04-25T08:14:16;5.10;;;2.92;;
10617;SDS011;5356;43.526;26.534;2023-04-25T08:16:42;6.60;;;3.40;;
10617;SDS011;5356;43.526;26.534;2023-04-25T08:19:07;8.70;;;5.13;;
10617;SDS011;5356;43.526;26.534;2023-04-25T08:21:33;5.95;;;4.07;;
10617;SDS011;5356;43.526;26.534;2023-04-25T08:23:58;3.83;;;2.70;;
10617;SDS011;5356;43.526;26.534;2023-04-25T08:26:24;6.45;;;2.47;;
10617;SDS011;5356;43.526;26.534;2023-04-25T08:28:50;5.60;;;2.58;;
10617;SDS011;5356;43.526;26.534;2023-04-25T08:31:16;7.15;;;3.35;;
10617;SDS011;5356;43.526;26.534;2023-04-25T08:33:42;4.40;;;2.88;;
10617;SDS011;5356;43.526;26.534;2023-04-25T08:36:07;3.70;;;3.00;;
10617;SDS011;5356;43.526;26.534;2023-04-25T08:38:33;6.20;;;2.80;;
10617;SDS011;5356;43.526;26.534;2023-04-25T08:40:59;2.88;;;2.58;;
10617;SDS011;5356;43.526;26.534;2023-04-25T08:43:26;4.60;;;2.60;;
10617;SDS011;5356;43.526;26.534;2023-04-25T08:45:53;5.53;;;2.95;;
10617;SDS011;5356;43.526;26.534;2023-04-25T08:48:24;7.38;;;2.60;;
10617;SDS011;5356;43.526;26.534;2023-04-25T08:50:54;3.58;;;2.70;;
10617;SDS011;5356;43.526;26.534;2023-04-25T08:53:28;3.22;;;2.30;;
10617;SDS011;5356;43.526;26.534;2023-04-25T08:55:59;4.25;;;2.35;;
10617;SDS011;5356;43.526;26.534;2023-04-25T08:58:29;3.45;;;2.30;;
10617;SDS011;5356;43.526;26.534;2023-04-25T09:00:55;2.80;;;2.20;;
10617;SDS011;5356;43.526;26.534;2023-04-25T09:03:21;3.65;;;2.40;;
10617;SDS011;5356;43.526;26.534;2023-04-25T09:05:46;4.72;;;2.80;;
10617;SDS011;5356;43.526;26.534;2023-04-25T09:08:12;4.45;;;2.65;;
10617;SDS011;5356;43.526;26.534;2023-04-25T09:10:38;5.25;;;2.33;;
10617;SDS011;5356;43.526;26.534;2023-04-25T09:15:56;3.50;;;2.30;;
10617;SDS011;5356;43.526;26.534;2023-04-25T09:18:23;3.05;;;2.13;;
10617;SDS011;5356;43.526;26.534;2023-04-25T09:20:55;3.78;;;2.17;;
10617;SDS011;5356;43.526;26.534;2023-04-25T09:23:23;2.55;;;2.00;;
10617;SDS011;5356;43.526;26.534;2023-04-25T09:25:50;4.75;;;2.10;;
10617;SDS011;5356;43.526;26.534;2023-04-25T09:28:26;3.15;;;2.55;;
10617;SDS011;5356;43.526;26.534;2023-04-25T09:30:56;2.88;;;2.55;;
10617;SDS011;5356;43.526;26.534;2023-04-25T09:33:28;2.97;;;2.33;;
10617;SDS011;5356;43.526;26.534;2023-04-25T09:35:56;5.28;;;3.15;;
10617;SDS011;5356;43.526;26.534;2023-04-25T09:38:27;5.60;;;2.88;;
10617;SDS011;5356;43.526;26.534;2023-04-25T09:40:55;3.03;;;2.33;;
10617;SDS011;5356;43.526;26.534;2023-04-25T09:43:22;8.65;;;3.70;;
10617;SDS011;5356;43.526;26.534;2023-04-25T09:45:49;5.47;;;2.53;;
10617;SDS011;5356;43.526;26.534;2023-04-25T09:48:17;3.20;;;2.22;;
10617;SDS011;5356;43.526;26.534;2023-04-25T09:50:44;2.30;;;2.03;;
10617;SDS011;5356;43.526;26.534;2023-04-25T09:53:09;3.63;;;1.80;;
10617;SDS011;5356;43.526;26.534;2023-04-25T09:55:35;2.53;;;2.17;;
10617;SDS011;5356;43.526;26.534;2023-04-25T09:58:04;3.92;;;2.05;;
10617;SDS011;5356;43.526;26.534;2023-04-25T10:00:32;3.50;;;2.30;;
10617;SDS011;5356;43.526;26.534;2023-04-25T10:03:00;3.17;;;2.10;;
10617;SDS011;5356;43.526;26.534;2023-04-25T10:05:29;2.97;;;2.38;;
10617;SDS011;5356;43.526;26.534;2023-04-25T10:07:57;3.63;;;1.80;;
10617;SDS011;5356;43.526;26.534;2023-04-25T10:10:27;8.13;;;2.80;;
10617;SDS011;5356;43.526;26.534;2023-04-25T10:12:57;1.58;;;1.48;;
10617;SDS011;5356;43.526;26.534;2023-04-25T10:15:24;6.03;;;2.20;;
10617;SDS011;5356;43.526;26.534;2023-04-25T10:17:52;2.38;;;1.80;;
10617;SDS011;5356;43.526;26.534;2023-04-25T10:20:18;5.63;;;2.20;;
10617;SDS011;5356;43.526;26.534;2023-04-25T10:22:46;4.30;;;2.70;;
10617;SDS011;5356;43.526;26.534;2023-04-25T10:25:13;6.40;;;2.95;;
10617;SDS011;5356;43.526;26.534;2023-04-25T10:27:40;3.50;;;2.63;;
10617;SDS011;5356;43.526;26.534;2023-04-25T10:30:10;3.00;;;2.25;;
10617;SDS011;5356;43.526;26.534;2023-04-25T10:32:41;2.45;;;2.10;;
10617;SDS011;5356;43.526;26.534;2023-04-25T10:35:11;2.70;;;2.30;;
10617;SDS011;5356;43.526;26.534;2023-04-25T10:37:36;3.75;;;2.97;;
10617;SDS011;5356;43.526;26.534;2023-04-25T10:40:09;7.78;;;4.00;;
10617;SDS011;5356;43.526;26.534;2023-04-25T10:42:35;3.10;;;2.70;;
10617;SDS011;5356;43.526;26.534;2023-04-25T10:45:01;3.30;;;2.53;;
10617;SDS011;5356;43.526;26.534;2023-04-25T10:47:36;1.98;;;1.77;;
10617;SDS011;5356;43.526;26.534;2023-04-25T10:50:09;2.65;;;2.22;;
10617;SDS011;5356;43.526;26.534;2023-04-25T10:52:36;2.28;;;2.05;;
10617;SDS011;5356;43.526;26.534;2023-04-25T10:55:05;3.67;;;2.17;;
10617;SDS011;5356;43.526;26.534;2023-04-25T10:57:39;2.42;;;2.20;;
10617;SDS011;5356;43.526;26.534;2023-04-25T11:00:09;3.15;;;2.60;;
10617;SDS011;5356;43.526;26.534;2023-04-25T11:02:38;3.22;;;2.55;;
10617;SDS011;5356;43.526;26.534;2023-04-25T11:05:10;4.88;;;2.83;;
10617;SDS011;5356;43.526;26.534;2023-04-25T11:07:51;3.63;;;2.60;;
10617;SDS011;5356;43.526;26.534;2023-04-25T11:10:18;2.30;;;2.10;;
10617;SDS011;5356;43.526;26.534;2023-04-25T11:12:45;3.97;;;1.83;;
10617;SDS011;5356;43.526;26.534;2023-04-25T11:15:12;4.20;;;2.20;;
10617;SDS011;5356;43.526;26.534;2023-04-25T11:17:38;3.15;;;2.25;;
10617;SDS011;5356;43.526;26.534;2023-04-25T11:20:05;17.13;;;6.60;;
10617;SDS011;5356;43.526;26.534;2023-04-25T11:22:36;6.65;;;2.42;;
10617;SDS011;5356;43.526;26.534;2023-04-25T11:25:10;2.78;;;1.67;;
10617;SDS011;5356;43.526;26.534;2023-04-25T11:27:37;8.55;;;2.65;;
10617;SDS011;5356;43.526;26.534;2023-04-25T11:30:14;10.23;;;3.50;;
10617;SDS011;5356;43.526;26.534;2023-04-25T11:32:41;35.53;;;11.57;;
10617;SDS011;5356;43.526;26.534;2023-04-25T11:35:07;5.07;;;2.20;;
10617;SDS011;5356;43.526;26.534;2023-04-25T11:37:33;5.53;;;2.10;;
10617;SDS011;5356;43.526;26.534;2023-04-25T11:39:59;4.30;;;2.17;;
10617;SDS011;5356;43.526;26.534;2023-04-25T11:42:25;7.20;;;1.70;;
10617;SDS011;5356;43.526;26.534;2023-04-25T11:44:51;3.10;;;1.85;;
10617;SDS011;5356;43.526;26.534;2023-04-25T11:47:17;2.22;;;1.60;;
10617;SDS011;5356;43.526;26.534;2023-04-25T11:49:42;3.72;;;1.40;;
10617;SDS011;5356;43.526;26.534;2023-04-25T11:52:08;6.00;;;2.80;;
10617;SDS011;5356;43.526;26.534;2023-04-25T11:54:37;8.50;;;2.50;;
10617;SDS011;5356;43.526;26.534;2023-04-25T11:57:03;6.10;;;3.00;;
10617;SDS011;5356;43.526;26.534;2023-04-25T11:59:29;1.60;;;1.17;;
10617;SDS011;5356;43.526;26.534;2023-04-25T12:01:55;4.47;;;1.65;;
10617;SDS011;5356;43.526;26.534;2023-04-25T12:06:51;22.35;;;7.00;;
10617;SDS011;5356;43.526;26.534;2023-04-25T12:09:19;2.22;;;1.08;;
10617;SDS011;5356;43.526;26.534;2023-04-25T12:14:20;3.47;;;1.65;;
10617;SDS011;5356;43.526;26.534;2023-04-25T12:16:49;3.65;;;1.33;;
10617;SDS011;5356;43.526;26.534;2023-04-25T12:19:16;2.08;;;1.50;;
10617;SDS011;5356;43.526;26.534;2023-04-25T12:21:43;3.10;;;1.45;;
10617;SDS011;5356;43.526;26.534;2023-04-25T12:24:12;1.45;;;1.35;;
10617;SDS011;5356;43.526;26.534;2023-04-25T12:26:50;5.20;;;1.65;;
10617;SDS011;5356;43.526;26.534;2023-04-25T12:29:24;3.90;;;1.98;;
10617;SDS011;5356;43.526;26.534;2023-04-25T12:31:51;4.60;;;1.60;;
10617;SDS011;5356;43.526;26.534;2023-04-25T12:34:20;2.67;;;1.83;;
10617;SDS011;5356;43.526;26.534;2023-04-25T12:36:46;3.40;;;1.77;;
10617;SDS011;5356;43.526;26.534;2023-04-25T12:41:41;3.63;;;1.77;;
10617;SDS011;5356;43.526;26.534;2023-04-25T12:44:07;2.80;;;1.30;;
10617;SDS011;5356;43.526;26.534;2023-04-25T12:46:32;1.83;;;1.40;;
10617;SDS011;5356;43.526;26.534;2023-04-25T12:49:00;1.35;;;1.10;;
10617;SDS011;5356;43.526;26.534;2023-04-25T12:51:26;0.90;;;0.90;;
10617;SDS011;5356;43.526;26.534;2023-04-25T12:53:52;1.58;;;1.25;;
10617;SDS011;5356;43.526;26.534;2023-04-25T12:56:18;1.42;;;1.33;;
10617;SDS011;5356;43.526;26.534;2023-04-25T12:58:44;2.20;;;1.70;;
10617;SDS011;5356;43.526;26.534;2023-04-25T13:01:09;1.90;;;1.50;;
10617;SDS011;5356;43.526;26.534;2023-04-25T13:03:36;3.67;;;2.10;;
10617;SDS011;5356;43.526;26.534;2023-04-25T13:06:02;3.83;;;1.60;;
10617;SDS011;5356;43.526;26.534;2023-04-25T13:08:27;2.47;;;1.33;;
10617;SDS011;5356;43.526;26.534;2023-04-25T13:10:53;2.92;;;1.30;;
10617;SDS011;5356;43.526;26.534;2023-04-25T13:13:18;1.60;;;1.38;;
10617;SDS011;5356;43.526;26.534;2023-04-25T13:15:44;1.98;;;1.08;;
10617;SDS011;5356;43.526;26.534;2023-04-25T13:18:09;4.28;;;1.67;;
10617;SDS011;5356;43.526;26.534;2023-04-25T13:20:35;8.68;;;6.18;;
10617;SDS011;5356;43.526;26.534;2023-04-25T13:23:00;9.40;;;6.05;;
10617;SDS011;5356;43.526;26.534;2023-04-25T13:25:26;5.53;;;2.88;;
10617;SDS011;5356;43.526;26.534;2023-04-25T13:27:51;4.00;;;3.00;;
10617;SDS011;5356;43.526;26.534;2023-04-25T13:30:17;4.63;;;4.22;;
10617;SDS011;5356;43.526;26.534;2023-04-25T13:32:42;4.25;;;3.88;;
10617;SDS011;5356;43.526;26.534;2023-04-25T13:35:09;4.22;;;3.50;;
10617;SDS011;5356;43.526;26.534;2023-04-25T13:37:37;4.78;;;4.38;;
10617;SDS011;5356;43.526;26.534;2023-04-25T13:40:04;2.55;;;2.13;;
10617;SDS011;5356;43.526;26.534;2023-04-25T13:42:32;3.95;;;2.60;;
10617;SDS011;5356;43.526;26.534;2023-04-25T13:44:58;3.40;;;2.75;;
10617;SDS011;5356;43.526;26.534;2023-04-25T13:47:23;3.35;;;3.05;;
10617;SDS011;5356;43.526;26.534;2023-04-25T13:49:50;3.13;;;1.20;;
10617;SDS011;5356;43.526;26.534;2023-04-25T13:52:16;1.17;;;1.00;;
10617;SDS011;5356;43.526;26.534;2023-04-25T13:54:42;1.42;;;1.33;;
10617;SDS011;5356;43.526;26.534;2023-04-25T13:57:07;3.17;;;2.88;;
10617;SDS011;5356;43.526;26.534;2023-04-25T13:59:33;2.95;;;1.67;;
10617;SDS011;5356;43.526;26.534;2023-04-25T14:01:58;2.38;;;1.15;;
10617;SDS011;5356;43.526;26.534;2023-04-25T14:04:24;2.80;;;2.35;;
10617;SDS011;5356;43.526;26.534;2023-04-25T14:06:50;3.28;;;1.63;;
10617;SDS011;5356;43.526;26.534;2023-04-25T14:09:16;2.35;;;1.85;;
10617;SDS011;5356;43.526;26.534;2023-04-25T14:11:42;3.35;;;2.08;;
10617;SDS011;5356;43.526;26.534;2023-04-25T14:14:08;1.40;;;1.30;;
10617;SDS011;5356;43.526;26.534;2023-04-25T14:16:33;1.27;;;0.98;;
10617;SDS011;5356;43.526;26.534;2023-04-25T14:19:00;2.00;;;1.08;;
10617;SDS011;5356;43.526;26.534;2023-04-25T14:21:26;13.18;;;4.35;;
10617;SDS011;5356;43.526;26.534;2023-04-25T14:23:51;12.95;;;5.85;;
10617;SDS011;5356;43.526;26.534;2023-04-25T14:26:17;2.10;;;1.52;;
10617;SDS011;5356;43.526;26.534;2023-04-25T14:28:43;1.23;;;0.90;;
10617;SDS011;5356;43.526;26.534;2023-04-25T14:31:08;2.33;;;1.10;;
10617;SDS011;5356;43.526;26.534;2023-04-25T14:33:34;1.10;;;0.70;;
10617;SDS011;5356;43.526;26.534;2023-04-25T14:36:00;3.15;;;1.10;;
10617;SDS011;5356;43.526;26.534;2023-04-25T14:38:25;1.67;;;1.13;;
10617;SDS011;5356;43.526;26.534;2023-04-25T14:40:51;0.93;;;0.77;;
10617;SDS011;5356;43.526;26.534;2023-04-25T14:43:18;0.65;;;0.65;;
10617;SDS011;5356;43.526;26.534;2023-04-25T14:45:44;2.40;;;1.10;;
10617;SDS011;5356;43.526;26.534;2023-04-25T14:48:10;2.20;;;1.10;;
10617;SDS011;5356;43.526;26.534;2023-04-25T14:50:35;1.00;;;0.70;;
10617;SDS011;5356;43.526;26.534;2023-04-25T14:53:01;1.27;;;0.95;;